sensor_id;sensor_type;location;lat;lon;timestamp;pressure;altitude;pressure_sealevel;temperature;humidity
12913;BME280;6524;51.368;11.984;2023-03-16T00:04:53;100892.25;;;-0.56;55.21
12913;BME280;6524;51.368;11.984;2023-03-16T00:09:54;100894.44;;;-0.22;53.93
12913;BME280;6524;51.368;11.984;2023-03-16T00:14:55;100901.03;;;-0.68;55.83
12913;BME280;6524;51.368;11.984;2023-03-16T00:19:56;100904.91;;;-0.28;55.43
12913;BME280;6524;51.368;11.984;2023-03-16T00:24:56;100897.19;;;-0.36;54.48
12913;BME280;6524;51.368;11.984;2023-03-16T00:29:57;100912.03;;;-1.37;56.71
12913;BME280;6524;51.368;11.984;2023-03-16T00:34:58;100914.81;;;-1.64;57.06
12913;BME280;6524;51.368;11.984;2023-03-16T00:39:59;100920.81;;;-1.58;57.20
12913;BME280;6524;51.368;11.984;2023-03-16T00:45:00;100916.47;;;-1.51;56.72
12913;BME280;6524;51.368;11.984;2023-03-16T00:50:01;100924.44;;;-1.83;57.47
12913;BME280;6524;51.368;11.984;2023-03-16T00:55:01;100917.56;;;-1.86;58.04
12913;BME280;6524;51.368;11.984;2023-03-16T04:11:31;100900.56;;;-2.50;59.25
12913;BME280;6524;51.368;11.984;2023-03-16T04:16:32;100902.34;;;-2.72;60.14
12913;BME280;6524;51.368;11.984;2023-03-16T04:21:33;100891.06;;;-2.49;59.71
12913;BME280;6524;51.368;11.984;2023-03-16T04:26:33;100904.72;;;-2.13;58.69
12913;BME280;6524;51.368;11.984;2023-03-16T04:31:33;100904.94;;;-2.72;58.68
12913;BME280;6524;51.368;11.984;2023-03-16T04:36:34;100898.00;;;-2.60;59.32
12913;BME280;6524;51.368;11.984;2023-03-16T04:41:34;100906.56;;;-2.46;58.71
12913;BME280;6524;51.368;11.984;2023-03-16T04:46:35;100889.41;;;-2.58;58.67
12913;BME280;6524;51.368;11.984;2023-03-16T04:51:36;100894.69;;;-3.51;61.20
12913;BME280;6524;51.368;11.984;2023-03-16T04:56:36;100904.97;;;-3.08;60.52
12913;BME280;6524;51.368;11.984;2023-03-16T05:01:40;100906.72;;;-3.01;59.15
12913;BME280;6524;51.368;11.984;2023-03-16T05:06:42;100902.44;;;-3.30;60.69
12913;BME280;6524;51.368;11.984;2023-03-16T05:11:43;100912.75;;;-3.16;60.93
12913;BME280;6524;51.368;11.984;2023-03-16T05:16:43;100906.72;;;-3.07;60.60
12913;BME280;6524;51.368;11.984;2023-03-16T05:21:43;100917.88;;;-2.99;61.03
12913;BME280;6524;51.368;11.984;2023-03-16T05:26:44;100917.91;;;-3.07;60.83
12913;BME280;6524;51.368;11.984;2023-03-16T05:31:45;100926.53;;;-3.25;61.82
12913;BME280;6524;51.368;11.984;2023-03-16T05:36:48;100924.81;;;-3.20;61.76
12913;BME280;6524;51.368;11.984;2023-03-16T05:41:48;100916.19;;;-3.03;61.32
12913;BME280;6524;51.368;11.984;2023-03-16T05:46:49;100925.66;;;-2.99;61.46
12913;BME280;6524;51.368;11.984;2023-03-16T05:51:50;100934.22;;;-2.70;59.87
12913;BME280;6524;51.368;11.984;2023-03-16T05:56:50;100937.63;;;-2.58;59.54
12913;BME280;6524;51.368;11.984;2023-03-16T06:01:50;100935.13;;;-2.86;60.28
12913;BME280;6524;51.368;11.984;2023-03-16T06:06:51;100938.47;;;-2.41;59.22
12913;BME280;6524;51.368;11.984;2023-03-16T06:11:51;100937.59;;;-2.40;60.26
12913;BME280;6524;51.368;11.984;2023-03-16T06:16:51;100951.38;;;-2.35;60.69
12913;BME280;6524;51.368;11.984;2023-03-16T06:21:52;100945.91;;;-1.67;58.98
12913;BME280;6524;51.368;11.984;2023-03-16T06:26:52;100940.00;;;-1.88;59.89
12913;BME280;6524;51.368;11.984;2023-03-16T06:31:52;100938.44;;;-0.89;57.92
12913;BME280;6524;51.368;11.984;2023-03-16T06:36:53;100948.94;;;-1.06;59.95
12913;BME280;6524;51.368;11.984;2023-03-16T06:41:54;100940.13;;;-0.89;58.38
12913;BME280;6524;51.368;11.984;2023-03-16T06:46:54;100946.91;;;0.03;54.67
12913;BME280;6524;51.368;11.984;2023-03-16T06:51:55;100937.13;;;0.22;53.45
12913;BME280;6524;51.368;11.984;2023-03-16T06:56:57;100942.91;;;0.44;53.39
12913;BME280;6524;51.368;11.984;2023-03-16T07:01:57;100937.59;;;1.54;49.80
12913;BME280;6524;51.368;11.984;2023-03-16T07:06:58;100936.97;;;2.26;47.63
12913;BME280;6524;51.368;11.984;2023-03-16T07:11:59;100941.22;;;2.69;47.46
12913;BME280;6524;51.368;11.984;2023-03-16T07:16:59;100946.25;;;4.06;43.72
12913;BME280;6524;51.368;11.984;2023-03-16T07:22:00;100950.19;;;6.02;40.46
12913;BME280;6524;51.368;11.984;2023-03-16T07:27:03;100949.22;;;6.72;38.91
12913;BME280;6524;51.368;11.984;2023-03-16T07:32:04;100945.34;;;9.80;34.57
12913;BME280;6524;51.368;11.984;2023-03-16T07:37:04;100942.72;;;11.50;31.27
12913;BME280;6524;51.368;11.984;2023-03-16T07:42:07;100951.81;;;13.12;28.16
12913;BME280;6524;51.368;11.984;2023-03-16T07:47:11;100959.22;;;16.20;25.06
12913;BME280;6524;51.368;11.984;2023-03-16T07:52:12;100956.03;;;15.48;25.89
12913;BME280;6524;51.368;11.984;2023-03-16T07:57:13;100960.41;;;16.82;23.97
12913;BME280;6524;51.368;11.984;2023-03-16T08:02:15;100971.66;;;20.22;21.50
12913;BME280;6524;51.368;11.984;2023-03-16T08:07:16;100973.16;;;20.07;20.88
12913;BME280;6524;51.368;11.984;2023-03-16T08:12:17;100978.16;;;19.35;21.66
12913;BME280;6524;51.368;11.984;2023-03-16T08:17:17;100978.31;;;18.56;22.64
12913;BME280;6524;51.368;11.984;2023-03-16T08:22:17;100979.91;;;20.11;21.17
12913;BME280;6524;51.368;11.984;2023-03-16T08:27:18;100983.19;;;18.41;22.33
12913;BME280;6524;51.368;11.984;2023-03-16T08:32:19;100983.44;;;19.74;21.30
12913;BME280;6524;51.368;11.984;2023-03-16T08:37:20;100992.31;;;21.47;19.42
12913;BME280;6524;51.368;11.984;2023-03-16T08:42:21;100996.53;;;19.20;21.55
12913;BME280;6524;51.368;11.984;2023-03-16T08:47:21;100991.44;;;19.27;20.86
12913;BME280;6524;51.368;11.984;2023-03-16T08:52:22;100982.38;;;21.65;19.70
12913;BME280;6524;51.368;11.984;2023-03-16T08:57:22;100983.09;;;20.52;19.53
12913;BME280;6524;51.368;11.984;2023-03-16T09:02:23;100975.28;;;21.12;19.51
12913;BME280;6524;51.368;11.984;2023-03-16T09:07:24;100977.84;;;21.66;18.60
12913;BME280;6524;51.368;11.984;2023-03-16T09:12:25;100975.53;;;22.13;18.31
12913;BME280;6524;51.368;11.984;2023-03-16T09:17:25;100967.75;;;21.42;18.55
12913;BME280;6524;51.368;11.984;2023-03-16T09:22:34;100971.97;;;22.05;17.71
12913;BME280;6524;51.368;11.984;2023-03-16T09:27:41;100970.13;;;21.45;18.64
12913;BME280;6524;51.368;11.984;2023-03-16T09:32:45;100979.56;;;21.49;18.23
12913;BME280;6524;51.368;11.984;2023-03-16T09:37:48;100979.28;;;21.60;18.12
12913;BME280;6524;51.368;11.984;2023-03-16T09:48:29;100979.56;;;19.96;18.14
12913;BME280;6524;51.368;11.984;2023-03-16T09:53:38;100986.41;;;19.71;17.38
12913;BME280;6524;51.368;11.984;2023-03-16T09:58:39;100977.47;;;19.04;19.49
12913;BME280;6524;51.368;11.984;2023-03-16T10:19:36;100967.53;;;20.00;20.10
12913;BME280;6524;51.368;11.984;2023-03-16T10:29:44;100957.91;;;18.55;20.54
12913;BME280;6524;51.368;11.984;2023-03-16T10:34:57;100951.16;;;19.66;19.11
12913;BME280;6524;51.368;11.984;2023-03-16T10:39:59;100941.22;;;18.42;20.09
12913;BME280;6524;51.368;11.984;2023-03-16T10:45:00;100946.25;;;18.16;20.48
12913;BME280;6524;51.368;11.984;2023-03-16T10:50:14;100930.44;;;19.68;19.24
12913;BME280;6524;51.368;11.984;2023-03-16T10:55:27;100941.16;;;19.02;16.55
12913;BME280;6524;51.368;11.984;2023-03-16T11:00:36;100934.06;;;15.80;20.45
12913;BME280;6524;51.368;11.984;2023-03-16T11:05:40;100920.59;;;17.94;18.23
12913;BME280;6524;51.368;11.984;2023-03-16T11:10:43;100919.44;;;18.85;16.53
12913;BME280;6524;51.368;11.984;2023-03-16T11:15:54;100907.91;;;17.55;17.24
12913;BME280;6524;51.368;11.984;2023-03-16T11:21:12;100914.59;;;16.45;17.71
12913;BME280;6524;51.368;11.984;2023-03-16T11:26:32;100901.69;;;16.61;18.07
12913;BME280;6524;51.368;11.984;2023-03-16T11:31:44;100901.16;;;15.69;18.55
12913;BME280;6524;51.368;11.984;2023-03-16T11:42:28;100884.00;;;17.02;17.76
12913;BME280;6524;51.368;11.984;2023-03-16T11:53:46;100869.22;;;16.56;17.74
12913;BME280;6524;51.368;11.984;2023-03-16T12:04:41;100849.44;;;15.83;18.45
12913;BME280;6524;51.368;11.984;2023-03-16T12:15:39;100841.09;;;17.36;17.89
12913;BME280;6524;51.368;11.984;2023-03-16T12:21:20;100823.72;;;14.81;19.73
12913;BME280;6524;51.368;11.984;2023-03-16T12:26:26;100807.09;;;15.69;18.96
12913;BME280;6524;51.368;11.984;2023-03-16T12:31:38;100801.44;;;15.28;19.96
12913;BME280;6524;51.368;11.984;2023-03-16T12:37:25;100805.66;;;15.08;19.67
12913;BME280;6524;51.368;11.984;2023-03-16T12:48:25;100791.00;;;15.03;20.31
12913;BME280;6524;51.368;11.984;2023-03-16T12:53:54;100775.72;;;14.71;20.19
12913;BME280;6524;51.368;11.984;2023-03-16T12:58:57;100766.00;;;12.64;22.50
12913;BME280;6524;51.368;11.984;2023-03-16T13:09:07;100768.75;;;13.00;22.76
12913;BME280;6524;51.368;11.984;2023-03-16T13:14:15;100760.66;;;13.15;22.75
12913;BME280;6524;51.368;11.984;2023-03-16T13:19:28;100760.44;;;12.01;23.91
12913;BME280;6524;51.368;11.984;2023-03-16T13:24:37;100751.84;;;11.98;23.35
12913;BME280;6524;51.368;11.984;2023-03-16T13:29:51;100756.44;;;12.61;23.53
12913;BME280;6524;51.368;11.984;2023-03-16T13:34:56;100767.53;;;13.30;23.13
12913;BME280;6524;51.368;11.984;2023-03-16T13:39:59;100764.94;;;12.66;23.17
12913;BME280;6524;51.368;11.984;2023-03-16T13:45:12;100768.69;;;12.37;22.98
12913;BME280;6524;51.368;11.984;2023-03-16T13:50:14;100761.50;;;12.39;23.00
12913;BME280;6524;51.368;11.984;2023-03-16T13:55:16;100759.78;;;12.25;23.16
12913;BME280;6524;51.368;11.984;2023-03-16T14:00:24;100729.75;;;12.64;22.94
12913;BME280;6524;51.368;11.984;2023-03-16T14:05:29;100731.16;;;11.22;24.01
12913;BME280;6524;51.368;11.984;2023-03-16T14:10:35;100715.13;;;11.25;23.89
12913;BME280;6524;51.368;11.984;2023-03-16T14:15:36;100703.00;;;11.21;23.75
12913;BME280;6524;51.368;11.984;2023-03-16T14:20:38;100698.69;;;11.88;23.42
12913;BME280;6524;51.368;11.984;2023-03-16T14:25:39;100687.88;;;12.44;23.57
12913;BME280;6524;51.368;11.984;2023-03-16T14:30:50;100684.34;;;12.18;23.99
12913;BME280;6524;51.368;11.984;2023-03-16T14:35:54;100700.25;;;10.81;24.33
12913;BME280;6524;51.368;11.984;2023-03-16T14:40:57;100683.75;;;11.60;23.61
12913;BME280;6524;51.368;11.984;2023-03-16T14:45:59;100672.75;;;10.98;23.28
12913;BME280;6524;51.368;11.984;2023-03-16T14:51:01;100659.16;;;9.72;24.79
12913;BME280;6524;51.368;11.984;2023-03-16T14:56:02;100649.44;;;9.58;23.88
12913;BME280;6524;51.368;11.984;2023-03-16T15:01:03;100645.47;;;8.70;25.90
12913;BME280;6524;51.368;11.984;2023-03-16T15:06:04;100643.94;;;8.66;26.02
12913;BME280;6524;51.368;11.984;2023-03-16T15:11:05;100640.63;;;8.29;26.54
12913;BME280;6524;51.368;11.984;2023-03-16T15:16:09;100641.88;;;9.52;25.43
12913;BME280;6524;51.368;11.984;2023-03-16T15:21:16;100637.66;;;8.02;27.06
12913;BME280;6524;51.368;11.984;2023-03-16T15:26:20;100638.81;;;7.96;27.37
12913;BME280;6524;51.368;11.984;2023-03-16T15:31:22;100621.78;;;8.04;27.05
12913;BME280;6524;51.368;11.984;2023-03-16T15:36:22;100616.34;;;8.07;27.96
12913;BME280;6524;51.368;11.984;2023-03-16T15:41:23;100620.72;;;7.90;27.58
12913;BME280;6524;51.368;11.984;2023-03-16T15:46:26;100620.53;;;7.22;29.01
12913;BME280;6524;51.368;11.984;2023-03-16T15:51:28;100623.41;;;7.71;28.50
12913;BME280;6524;51.368;11.984;2023-03-16T15:56:32;100615.78;;;7.67;29.03
12913;BME280;6524;51.368;11.984;2023-03-16T16:01:42;100629.19;;;8.30;28.23
12913;BME280;6524;51.368;11.984;2023-03-16T16:06:47;100610.97;;;7.92;28.70
12913;BME280;6524;51.368;11.984;2023-03-16T16:11:48;100606.22;;;8.50;28.04
12913;BME280;6524;51.368;11.984;2023-03-16T16:16:49;100598.69;;;8.26;28.26
12913;BME280;6524;51.368;11.984;2023-03-16T16:21:50;100584.41;;;8.14;28.46
12913;BME280;6524;51.368;11.984;2023-03-16T16:26:51;100598.41;;;8.15;28.27
12913;BME280;6524;51.368;11.984;2023-03-16T16:31:52;100595.63;;;8.18;28.88
12913;BME280;6524;51.368;11.984;2023-03-16T16:36:53;100594.16;;;8.46;28.77
12913;BME280;6524;51.368;11.984;2023-03-16T16:41:54;100596.38;;;8.53;28.43
12913;BME280;6524;51.368;11.984;2023-03-16T16:46:55;100588.91;;;7.95;29.62
12913;BME280;6524;51.368;11.984;2023-03-16T16:51:57;100598.72;;;7.91;29.88
12913;BME280;6524;51.368;11.984;2023-03-16T16:56:59;100593.63;;;8.06;30.07
12913;BME280;6524;51.368;11.984;2023-03-16T17:02:01;100578.63;;;7.73;31.56
12913;BME280;6524;51.368;11.984;2023-03-16T17:07:05;100570.28;;;7.65;32.04
12913;BME280;6524;51.368;11.984;2023-03-16T17:12:15;100566.69;;;8.01;32.16
12913;BME280;6524;51.368;11.984;2023-03-16T17:17:17;100567.13;;;7.22;33.76
12913;BME280;6524;51.368;11.984;2023-03-16T17:22:25;100563.47;;;7.61;33.81
12913;BME280;6524;51.368;11.984;2023-03-16T17:27:28;100573.38;;;7.19;34.48
12913;BME280;6524;51.368;11.984;2023-03-16T17:32:30;100561.63;;;7.45;34.72
12913;BME280;6524;51.368;11.984;2023-03-16T17:37:30;100555.34;;;6.94;35.57
12913;BME280;6524;51.368;11.984;2023-03-16T17:42:31;100539.88;;;6.88;35.75
12913;BME280;6524;51.368;11.984;2023-03-16T17:47:32;100557.00;;;6.78;35.91
12913;BME280;6524;51.368;11.984;2023-03-16T17:52:37;100546.31;;;7.00;35.53
12913;BME280;6524;51.368;11.984;2023-03-16T17:57:37;100549.59;;;5.70;38.22
12913;BME280;6524;51.368;11.984;2023-03-16T18:02:44;100554.28;;;6.23;37.53
12913;BME280;6524;51.368;11.984;2023-03-16T18:07:49;100556.69;;;6.46;37.15
12913;BME280;6524;51.368;11.984;2023-03-16T18:12:59;100545.53;;;5.83;38.33
12913;BME280;6524;51.368;11.984;2023-03-16T18:18:01;100543.06;;;6.38;37.72
12913;BME280;6524;51.368;11.984;2023-03-16T18:23:18;100531.44;;;6.25;38.28
12913;BME280;6524;51.368;11.984;2023-03-16T18:28:20;100531.31;;;6.66;37.48
12913;BME280;6524;51.368;11.984;2023-03-16T18:33:29;100527.13;;;6.24;38.48
12913;BME280;6524;51.368;11.984;2023-03-16T18:38:33;100529.22;;;6.55;38.01
12913;BME280;6524;51.368;11.984;2023-03-16T18:43:34;100529.75;;;6.24;38.53
12913;BME280;6524;51.368;11.984;2023-03-16T18:48:35;100530.47;;;6.65;37.76
12913;BME280;6524;51.368;11.984;2023-03-16T18:53:35;100531.00;;;6.34;38.41
12913;BME280;6524;51.368;11.984;2023-03-16T18:58:36;100535.31;;;6.55;38.00
12913;BME280;6524;51.368;11.984;2023-03-16T19:03:40;100539.84;;;6.12;38.92
12913;BME280;6524;51.368;11.984;2023-03-16T19:08:42;100551.16;;;6.33;38.78
12913;BME280;6524;51.368;11.984;2023-03-16T19:13:42;100548.38;;;6.37;38.59
12913;BME280;6524;51.368;11.984;2023-03-16T19:18:43;100546.47;;;6.40;38.63
12913;BME280;6524;51.368;11.984;2023-03-16T19:23:54;100530.44;;;6.08;38.79
12913;BME280;6524;51.368;11.984;2023-03-16T19:28:56;100534.91;;;5.86;39.77
12913;BME280;6524;51.368;11.984;2023-03-16T19:33:57;100532.81;;;4.89;41.60
12913;BME280;6524;51.368;11.984;2023-03-16T19:38:58;100528.97;;;5.19;40.79
12913;BME280;6524;51.368;11.984;2023-03-16T19:44:11;100537.25;;;5.09;40.80
12913;BME280;6524;51.368;11.984;2023-03-16T19:49:19;100536.59;;;5.26;40.47
12913;BME280;6524;51.368;11.984;2023-03-16T19:54:22;100533.72;;;4.88;41.61
12913;BME280;6524;51.368;11.984;2023-03-16T19:59:25;100537.44;;;4.60;41.70
12913;BME280;6524;51.368;11.984;2023-03-16T20:04:28;100534.41;;;4.93;41.36
12913;BME280;6524;51.368;11.984;2023-03-16T20:09:30;100518.84;;;4.21;43.09
12913;BME280;6524;51.368;11.984;2023-03-16T20:14:31;100507.75;;;4.38;42.91
12913;BME280;6524;51.368;11.984;2023-03-16T20:19:32;100506.75;;;3.95;43.95
12913;BME280;6524;51.368;11.984;2023-03-16T20:24:32;100502.91;;;4.29;43.11
12913;BME280;6524;51.368;11.984;2023-03-16T20:29:33;100513.28;;;3.81;43.82
12913;BME280;6524;51.368;11.984;2023-03-16T20:34:33;100505.06;;;3.67;44.01
12913;BME280;6524;51.368;11.984;2023-03-16T20:39:33;100503.06;;;3.75;44.13
12913;BME280;6524;51.368;11.984;2023-03-16T20:44:37;100509.13;;;4.48;42.33
12913;BME280;6524;51.368;11.984;2023-03-16T20:49:37;100516.47;;;4.15;43.01
12913;BME280;6524;51.368;11.984;2023-03-16T20:54:38;100507.13;;;3.06;44.89
12913;BME280;6524;51.368;11.984;2023-03-16T20:59:38;100503.69;;;3.57;44.20
12913;BME280;6524;51.368;11.984;2023-03-16T21:04:39;100510.25;;;3.17;44.60
12913;BME280;6524;51.368;11.984;2023-03-16T21:09:41;100503.25;;;3.19;45.05
12913;BME280;6524;51.368;11.984;2023-03-16T21:14:42;100493.59;;;2.95;44.83
12913;BME280;6524;51.368;11.984;2023-03-16T21:19:42;100490.91;;;2.98;45.09
12913;BME280;6524;51.368;11.984;2023-03-16T21:24:42;100495.41;;;2.93;45.05
12913;BME280;6524;51.368;11.984;2023-03-16T21:29:43;100489.22;;;2.95;45.21
12913;BME280;6524;51.368;11.984;2023-03-16T21:34:43;100473.69;;;3.44;44.38
12913;BME280;6524;51.368;11.984;2023-03-16T21:39:44;100473.69;;;3.44;44.38
12913;BME280;6524;51.368;11.984;2023-03-16T21:44:45;100464.13;;;3.68;44.23
12913;BME280;6524;51.368;11.984;2023-03-16T21:49:45;100459.53;;;3.74;43.57
12913;BME280;6524;51.368;11.984;2023-03-16T21:54:46;100456.47;;;3.63;44.13
12913;BME280;6524;51.368;11.984;2023-03-16T21:59:46;100465.72;;;3.97;43.17
12913;BME280;6524;51.368;11.984;2023-03-16T22:04:48;100457.41;;;4.09;43.40
12913;BME280;6524;51.368;11.984;2023-03-16T22:09:49;100454.63;;;3.67;44.15
12913;BME280;6524;51.368;11.984;2023-03-16T22:14:49;100453.91;;;3.62;44.16
12913;BME280;6524;51.368;11.984;2023-03-16T22:19:50;100449.53;;;2.59;46.47
12913;BME280;6524;51.368;11.984;2023-03-16T22:24:50;100446.22;;;2.80;46.16
12913;BME280;6524;51.368;11.984;2023-03-16T22:29:51;100437.09;;;2.67;46.97
12913;BME280;6524;51.368;11.984;2023-03-16T22:34:53;100446.97;;;2.29;47.16
12913;BME280;6524;51.368;11.984;2023-03-16T22:39:55;100428.06;;;2.21;47.58
12913;BME280;6524;51.368;11.984;2023-03-16T22:44:58;100421.00;;;2.26;47.45
12913;BME280;6524;51.368;11.984;2023-03-16T22:49:59;100408.69;;;2.02;47.46
12913;BME280;6524;51.368;11.984;2023-03-16T22:55:03;100396.56;;;2.30;47.46
12913;BME280;6524;51.368;11.984;2023-03-16T23:00:04;100395.22;;;1.58;49.43
12913;BME280;6524;51.368;11.984;2023-03-16T23:05:18;100374.22;;;1.93;48.42
12913;BME280;6524;51.368;11.984;2023-03-16T23:10:24;100371.16;;;1.79;48.50
12913;BME280;6524;51.368;11.984;2023-03-16T23:15:29;100361.63;;;2.08;47.97
12913;BME280;6524;51.368;11.984;2023-03-16T23:20:30;100366.09;;;2.59;47.27
12913;BME280;6524;51.368;11.984;2023-03-16T23:25:31;100369.16;;;3.22;44.72
12913;BME280;6524;51.368;11.984;2023-03-16T23:30:32;100358.06;;;2.92;45.22
12913;BME280;6524;51.368;11.984;2023-03-16T23:35:36;100345.06;;;3.15;45.34
12913;BME280;6524;51.368;11.984;2023-03-16T23:40:37;100353.47;;;2.73;46.06
12913;BME280;6524;51.368;11.984;2023-03-16T23:45:40;100349.00;;;2.77;45.99
12913;BME280;6524;51.368;11.984;2023-03-16T23:50:42;100340.16;;;3.06;45.41
12913;BME280;6524;51.368;11.984;2023-03-16T23:55:43;100338.34;;;2.31;47.11
